sensor_id;sensor_type;location;lat;lon;timestamp;temperature;humidity
20594;DHT22;10455;48.732;10.266;2023-08-08T00:02:15;10.30;99.90
20594;DHT22;10455;48.732;10.266;2023-08-08T00:07:20;10.20;99.90
20594;DHT22;10455;48.732;10.266;2023-08-08T00:12:21;10.10;99.90
20594;DHT22;10455;48.732;10.266;2023-08-08T00:17:23;10.00;99.90
20594;DHT22;10455;48.732;10.266;2023-08-08T00:22:27;9.80;99.90
20594;DHT22;10455;48.732;10.266;2023-08-08T00:27:28;9.50;99.90
20594;DHT22;10455;48.732;10.266;2023-08-08T00:32:30;9.40;99.90
20594;DHT22;10455;48.732;10.266;2023-08-08T00:37:34;9.40;99.90
20594;DHT22;10455;48.732;10.266;2023-08-08T00:42:36;9.40;99.90
20594;DHT22;10455;48.732;10.266;2023-08-08T00:47:38;9.30;99.90
20594;DHT22;10455;48.732;10.266;2023-08-08T00:52:41;9.30;99.90
20594;DHT22;10455;48.732;10.266;2023-08-08T00:57:44;9.20;99.90
20594;DHT22;10455;48.732;10.266;2023-08-08T01:02:46;9.10;99.90
20594;DHT22;10455;48.732;10.266;2023-08-08T01:07:54;9.20;99.90
20594;DHT22;10455;48.732;10.266;2023-08-08T01:13:02;9.20;99.90
20594;DHT22;10455;48.732;10.266;2023-08-08T01:18:06;9.20;99.90
20594;DHT22;10455;48.732;10.266;2023-08-08T01:23:14;9.10;99.90
20594;DHT22;10455;48.732;10.266;2023-08-08T01:28:22;9.10;99.90
20594;DHT22;10455;48.732;10.266;2023-08-08T01:33:24;9.00;99.90
20594;DHT22;10455;48.732;10.266;2023-08-08T01:38:30;9.00;99.90
20594;DHT22;10455;48.732;10.266;2023-08-08T01:43:35;9.10;99.90
20594;DHT22;10455;48.732;10.266;2023-08-08T01:48:38;9.10;99.90
20594;DHT22;10455;48.732;10.266;2023-08-08T01:53:40;9.10;99.90
20594;DHT22;10455;48.732;10.266;2023-08-08T01:58:44;9.00;99.90
20594;DHT22;10455;48.732;10.266;2023-08-08T02:03:46;9.10;99.90
20594;DHT22;10455;48.732;10.266;2023-08-08T02:08:47;9.10;99.90
20594;DHT22;10455;48.732;10.266;2023-08-08T02:13:51;9.20;99.90
20594;DHT22;10455;48.732;10.266;2023-08-08T02:18:52;9.20;99.90
20594;DHT22;10455;48.732;10.266;2023-08-08T02:23:54;9.30;99.90
20594;DHT22;10455;48.732;10.266;2023-08-08T02:28:58;9.40;99.90
20594;DHT22;10455;48.732;10.266;2023-08-08T02:34:00;9.40;99.90
20594;DHT22;10455;48.732;10.266;2023-08-08T02:39:02;9.40;99.90
20594;DHT22;10455;48.732;10.266;2023-08-08T02:44:06;9.50;99.90
20594;DHT22;10455;48.732;10.266;2023-08-08T02:49:07;9.60;99.90
20594;DHT22;10455;48.732;10.266;2023-08-08T02:54:09;9.70;99.90
20594;DHT22;10455;48.732;10.266;2023-08-08T02:59:13;9.70;99.90
20594;DHT22;10455;48.732;10.266;2023-08-08T03:04:14;9.90;99.90
20594;DHT22;10455;48.732;10.266;2023-08-08T03:09:16;9.90;99.90
20594;DHT22;10455;48.732;10.266;2023-08-08T03:14:20;10.00;99.90
20594;DHT22;10455;48.732;10.266;2023-08-08T03:19:22;9.90;99.90
20594;DHT22;10455;48.732;10.266;2023-08-08T03:24:24;9.90;99.90
20594;DHT22;10455;48.732;10.266;2023-08-08T03:29:27;10.00;99.90
20594;DHT22;10455;48.732;10.266;2023-08-08T03:34:29;10.00;99.90
20594;DHT22;10455;48.732;10.266;2023-08-08T03:39:30;10.00;99.90
20594;DHT22;10455;48.732;10.266;2023-08-08T03:44:34;10.10;99.90
20594;DHT22;10455;48.732;10.266;2023-08-08T03:49:36;10.10;99.90
20594;DHT22;10455;48.732;10.266;2023-08-08T03:54:38;10.00;99.90
20594;DHT22;10455;48.732;10.266;2023-08-08T03:59:41;10.00;99.90
20594;DHT22;10455;48.732;10.266;2023-08-08T04:04:43;9.80;99.90
20594;DHT22;10455;48.732;10.266;2023-08-08T04:09:44;9.70;99.90
20594;DHT22;10455;48.732;10.266;2023-08-08T04:14:48;9.50;99.90
20594;DHT22;10455;48.732;10.266;2023-08-08T04:19:50;9.40;99.90
20594;DHT22;10455;48.732;10.266;2023-08-08T04:24:52;9.30;99.90
20594;DHT22;10455;48.732;10.266;2023-08-08T04:29:55;9.20;99.90
20594;DHT22;10455;48.732;10.266;2023-08-08T04:34:57;9.30;99.90
20594;DHT22;10455;48.732;10.266;2023-08-08T04:39:59;9.40;99.90
20594;DHT22;10455;48.732;10.266;2023-08-08T04:45:02;9.50;99.90
20594;DHT22;10455;48.732;10.266;2023-08-08T04:50:05;9.90;99.90
20594;DHT22;10455;48.732;10.266;2023-08-08T04:55:08;10.20;99.90
20594;DHT22;10455;48.732;10.266;2023-08-08T05:00:13;12.00;99.90
20594;DHT22;10455;48.732;10.266;2023-08-08T05:05:16;14.30;99.90
20594;DHT22;10455;48.732;10.266;2023-08-08T05:10:18;16.10;99.90
20594;DHT22;10455;48.732;10.266;2023-08-08T05:15:21;16.40;99.90
20594;DHT22;10455;48.732;10.266;2023-08-08T05:20:23;16.10;99.90
20594;DHT22;10455;48.732;10.266;2023-08-08T05:25:25;13.80;99.90
20594;DHT22;10455;48.732;10.266;2023-08-08T05:30:28;13.40;99.90
20594;DHT22;10455;48.732;10.266;2023-08-08T05:35:30;12.10;99.90
20594;DHT22;10455;48.732;10.266;2023-08-08T05:40:34;11.40;99.90
20594;DHT22;10455;48.732;10.266;2023-08-08T05:45:38;11.20;99.90
20594;DHT22;10455;48.732;10.266;2023-08-08T05:50:40;11.10;99.90
20594;DHT22;10455;48.732;10.266;2023-08-08T05:55:42;11.10;99.90
20594;DHT22;10455;48.732;10.266;2023-08-08T06:00:45;11.20;99.90
20594;DHT22;10455;48.732;10.266;2023-08-08T06:05:47;11.10;99.90
20594;DHT22;10455;48.732;10.266;2023-08-08T06:10:49;11.30;99.90
20594;DHT22;10455;48.732;10.266;2023-08-08T06:15:52;11.20;99.90
20594;DHT22;10455;48.732;10.266;2023-08-08T06:20:54;11.10;99.90
20594;DHT22;10455;48.732;10.266;2023-08-08T06:25:56;11.70;99.90
20594;DHT22;10455;48.732;10.266;2023-08-08T06:31:00;14.10;99.90
20594;DHT22;10455;48.732;10.266;2023-08-08T06:36:02;13.90;99.90
20594;DHT22;10455;48.732;10.266;2023-08-08T06:41:05;16.70;99.90
20594;DHT22;10455;48.732;10.266;2023-08-08T06:46:08;18.80;99.90
20594;DHT22;10455;48.732;10.266;2023-08-08T06:51:10;20.10;99.90
20594;DHT22;10455;48.732;10.266;2023-08-08T06:56:12;21.10;99.90
20594;DHT22;10455;48.732;10.266;2023-08-08T07:01:15;22.00;99.90
20594;DHT22;10455;48.732;10.266;2023-08-08T07:06:18;21.70;99.90
20594;DHT22;10455;48.732;10.266;2023-08-08T07:11:20;22.40;99.90
20594;DHT22;10455;48.732;10.266;2023-08-08T07:16:24;22.80;99.90
20594;DHT22;10455;48.732;10.266;2023-08-08T07:21:26;24.30;99.90
20594;DHT22;10455;48.732;10.266;2023-08-08T07:26:28;25.40;99.90
20594;DHT22;10455;48.732;10.266;2023-08-08T07:31:31;24.40;99.90
20594;DHT22;10455;48.732;10.266;2023-08-08T07:36:33;25.00;99.90
20594;DHT22;10455;48.732;10.266;2023-08-08T07:41:36;25.70;99.90
20594;DHT22;10455;48.732;10.266;2023-08-08T07:46:39;27.10;99.90
20594;DHT22;10455;48.732;10.266;2023-08-08T07:51:41;28.50;98.40
20594;DHT22;10455;48.732;10.266;2023-08-08T07:56:43;28.60;97.00
20594;DHT22;10455;48.732;10.266;2023-08-08T08:01:46;28.00;96.30
20594;DHT22;10455;48.732;10.266;2023-08-08T08:06:48;27.00;98.20
20594;DHT22;10455;48.732;10.266;2023-08-08T08:11:50;27.40;98.50
20594;DHT22;10455;48.732;10.266;2023-08-08T08:16:54;25.30;99.30
20594;DHT22;10455;48.732;10.266;2023-08-08T08:21:56;23.70;99.90
20594;DHT22;10455;48.732;10.266;2023-08-08T08:26:58;25.40;99.90
20594;DHT22;10455;48.732;10.266;2023-08-08T08:32:01;26.20;98.10
20594;DHT22;10455;48.732;10.266;2023-08-08T08:37:03;25.80;97.70
20594;DHT22;10455;48.732;10.266;2023-08-08T08:42:06;26.10;96.30
20594;DHT22;10455;48.732;10.266;2023-08-08T08:47:13;26.80;96.30
20594;DHT22;10455;48.732;10.266;2023-08-08T08:52:14;26.70;93.90
20594;DHT22;10455;48.732;10.266;2023-08-08T08:57:17;25.90;95.80
20594;DHT22;10455;48.732;10.266;2023-08-08T09:02:21;25.30;95.80
20594;DHT22;10455;48.732;10.266;2023-08-08T09:07:26;25.80;95.00
20594;DHT22;10455;48.732;10.266;2023-08-08T09:12:29;24.70;96.90
20594;DHT22;10455;48.732;10.266;2023-08-08T09:17:33;23.30;97.60
20594;DHT22;10455;48.732;10.266;2023-08-08T09:22:35;24.00;96.10
20594;DHT22;10455;48.732;10.266;2023-08-08T09:27:37;25.20;96.80
20594;DHT22;10455;48.732;10.266;2023-08-08T09:32:43;25.80;94.80
20594;DHT22;10455;48.732;10.266;2023-08-08T09:37:45;24.40;95.70
20594;DHT22;10455;48.732;10.266;2023-08-08T09:42:47;23.20;97.40
20594;DHT22;10455;48.732;10.266;2023-08-08T09:47:51;23.80;97.70
20594;DHT22;10455;48.732;10.266;2023-08-08T09:52:54;24.50;97.60
20594;DHT22;10455;48.732;10.266;2023-08-08T09:57:57;24.60;95.70
20594;DHT22;10455;48.732;10.266;2023-08-08T10:03:01;24.20;95.50
20594;DHT22;10455;48.732;10.266;2023-08-08T10:08:03;23.40;96.40
20594;DHT22;10455;48.732;10.266;2023-08-08T10:13:07;23.10;97.30
20594;DHT22;10455;48.732;10.266;2023-08-08T10:18:12;23.00;97.70
20594;DHT22;10455;48.732;10.266;2023-08-08T10:23:15;23.20;97.90
20594;DHT22;10455;48.732;10.266;2023-08-08T10:28:20;23.50;97.80
20594;DHT22;10455;48.732;10.266;2023-08-08T10:33:25;24.50;96.80
20594;DHT22;10455;48.732;10.266;2023-08-08T10:38:38;23.80;96.80
20594;DHT22;10455;48.732;10.266;2023-08-08T10:43:48;23.90;96.80
20594;DHT22;10455;48.732;10.266;2023-08-08T10:48:53;23.00;97.10
20594;DHT22;10455;48.732;10.266;2023-08-08T10:53:55;25.70;96.00
20594;DHT22;10455;48.732;10.266;2023-08-08T10:58:57;26.60;93.60
20594;DHT22;10455;48.732;10.266;2023-08-08T11:04:01;27.00;91.70
20594;DHT22;10455;48.732;10.266;2023-08-08T11:09:05;28.40;91.20
20594;DHT22;10455;48.732;10.266;2023-08-08T11:14:13;27.00;90.80
20594;DHT22;10455;48.732;10.266;2023-08-08T11:19:17;24.90;92.40
20594;DHT22;10455;48.732;10.266;2023-08-08T11:24:19;24.30;94.20
20594;DHT22;10455;48.732;10.266;2023-08-08T11:29:21;25.10;93.80
20594;DHT22;10455;48.732;10.266;2023-08-08T11:34:25;26.00;91.90
20594;DHT22;10455;48.732;10.266;2023-08-08T11:39:27;26.10;91.30
20594;DHT22;10455;48.732;10.266;2023-08-08T11:44:30;26.30;91.70
20594;DHT22;10455;48.732;10.266;2023-08-08T11:49:40;27.60;88.50
20594;DHT22;10455;48.732;10.266;2023-08-08T11:54:42;26.30;89.80
20594;DHT22;10455;48.732;10.266;2023-08-08T11:59:44;25.70;90.90
20594;DHT22;10455;48.732;10.266;2023-08-08T12:04:47;26.50;88.00
20594;DHT22;10455;48.732;10.266;2023-08-08T12:09:49;26.70;89.20
20594;DHT22;10455;48.732;10.266;2023-08-08T12:14:53;27.40;90.90
20594;DHT22;10455;48.732;10.266;2023-08-08T12:20:00;25.40;90.30
20594;DHT22;10455;48.732;10.266;2023-08-08T12:25:03;25.10;90.20
20594;DHT22;10455;48.732;10.266;2023-08-08T12:30:06;26.40;85.90
20594;DHT22;10455;48.732;10.266;2023-08-08T12:35:10;27.20;86.60
20594;DHT22;10455;48.732;10.266;2023-08-08T12:40:12;26.20;90.00
20594;DHT22;10455;48.732;10.266;2023-08-08T12:45:14;27.40;87.40
20594;DHT22;10455;48.732;10.266;2023-08-08T12:50:17;27.40;86.70
20594;DHT22;10455;48.732;10.266;2023-08-08T12:55:19;27.20;84.30
20594;DHT22;10455;48.732;10.266;2023-08-08T13:00:21;26.40;86.70
20594;DHT22;10455;48.732;10.266;2023-08-08T13:05:25;26.80;82.10
20594;DHT22;10455;48.732;10.266;2023-08-08T13:10:27;26.50;84.70
20594;DHT22;10455;48.732;10.266;2023-08-08T13:15:29;26.20;87.80
20594;DHT22;10455;48.732;10.266;2023-08-08T13:20:32;25.40;89.20
20594;DHT22;10455;48.732;10.266;2023-08-08T13:25:34;25.70;88.90
20594;DHT22;10455;48.732;10.266;2023-08-08T13:30:36;26.70;85.60
20594;DHT22;10455;48.732;10.266;2023-08-08T13:35:39;26.70;85.40
20594;DHT22;10455;48.732;10.266;2023-08-08T13:40:41;25.60;87.40
20594;DHT22;10455;48.732;10.266;2023-08-08T13:45:43;25.60;88.20
20594;DHT22;10455;48.732;10.266;2023-08-08T13:50:46;26.70;86.60
20594;DHT22;10455;48.732;10.266;2023-08-08T13:55:48;27.40;84.60
20594;DHT22;10455;48.732;10.266;2023-08-08T14:00:51;27.10;82.30
20594;DHT22;10455;48.732;10.266;2023-08-08T14:05:54;27.00;83.30
20594;DHT22;10455;48.732;10.266;2023-08-08T14:10:56;28.40;86.20
20594;DHT22;10455;48.732;10.266;2023-08-08T14:15:58;28.00;78.80
20594;DHT22;10455;48.732;10.266;2023-08-08T14:21:01;26.40;83.70
20594;DHT22;10455;48.732;10.266;2023-08-08T14:26:05;25.40;87.40
20594;DHT22;10455;48.732;10.266;2023-08-08T14:31:06;27.20;80.50
20594;DHT22;10455;48.732;10.266;2023-08-08T14:36:10;25.20;81.80
20594;DHT22;10455;48.732;10.266;2023-08-08T14:41:11;24.10;85.30
20594;DHT22;10455;48.732;10.266;2023-08-08T14:46:13;23.40;88.80
20594;DHT22;10455;48.732;10.266;2023-08-08T14:51:17;23.10;90.10
20594;DHT22;10455;48.732;10.266;2023-08-08T14:56:20;22.90;89.80
20594;DHT22;10455;48.732;10.266;2023-08-08T15:01:22;22.80;91.00
20594;DHT22;10455;48.732;10.266;2023-08-08T15:06:25;22.40;90.60
20594;DHT22;10455;48.732;10.266;2023-08-08T15:11:27;21.90;91.60
20594;DHT22;10455;48.732;10.266;2023-08-08T15:16:29;21.60;92.40
20594;DHT22;10455;48.732;10.266;2023-08-08T15:21:33;21.60;93.20
20594;DHT22;10455;48.732;10.266;2023-08-08T15:26:34;21.30;93.40
20594;DHT22;10455;48.732;10.266;2023-08-08T15:31:36;21.20;94.10
20594;DHT22;10455;48.732;10.266;2023-08-08T15:36:40;21.60;93.70
20594;DHT22;10455;48.732;10.266;2023-08-08T15:41:41;22.50;93.70
20594;DHT22;10455;48.732;10.266;2023-08-08T15:46:44;23.10;92.80
20594;DHT22;10455;48.732;10.266;2023-08-08T15:51:47;23.80;92.40
20594;DHT22;10455;48.732;10.266;2023-08-08T15:56:49;24.70;91.50
20594;DHT22;10455;48.732;10.266;2023-08-08T16:01:52;24.80;91.90
20594;DHT22;10455;48.732;10.266;2023-08-08T16:06:55;24.00;92.20
20594;DHT22;10455;48.732;10.266;2023-08-08T16:11:57;23.20;92.80
20594;DHT22;10455;48.732;10.266;2023-08-08T16:16:59;22.10;95.10
20594;DHT22;10455;48.732;10.266;2023-08-08T16:22:04;21.60;95.90
20594;DHT22;10455;48.732;10.266;2023-08-08T16:27:06;21.20;97.40
20594;DHT22;10455;48.732;10.266;2023-08-08T16:32:08;21.10;96.40
20594;DHT22;10455;48.732;10.266;2023-08-08T16:37:11;21.40;97.30
20594;DHT22;10455;48.732;10.266;2023-08-08T16:42:13;21.20;97.80
20594;DHT22;10455;48.732;10.266;2023-08-08T16:47:15;21.40;97.50
20594;DHT22;10455;48.732;10.266;2023-08-08T16:52:18;21.60;96.60
20594;DHT22;10455;48.732;10.266;2023-08-08T16:57:20;22.10;96.00
20594;DHT22;10455;48.732;10.266;2023-08-08T17:02:22;21.70;97.00
20594;DHT22;10455;48.732;10.266;2023-08-08T17:07:25;21.70;96.40
20594;DHT22;10455;48.732;10.266;2023-08-08T17:12:29;21.70;96.20
20594;DHT22;10455;48.732;10.266;2023-08-08T17:17:31;22.00;97.50
20594;DHT22;10455;48.732;10.266;2023-08-08T17:22:35;21.80;96.20
20594;DHT22;10455;48.732;10.266;2023-08-08T17:27:36;21.00;97.60
20594;DHT22;10455;48.732;10.266;2023-08-08T17:32:39;20.20;98.60
20594;DHT22;10455;48.732;10.266;2023-08-08T17:37:42;20.20;98.80
20594;DHT22;10455;48.732;10.266;2023-08-08T17:42:44;20.20;99.60
20594;DHT22;10455;48.732;10.266;2023-08-08T17:47:46;20.00;99.70
20594;DHT22;10455;48.732;10.266;2023-08-08T17:52:49;19.40;99.90
20594;DHT22;10455;48.732;10.266;2023-08-08T17:57:51;19.60;99.90
20594;DHT22;10455;48.732;10.266;2023-08-08T18:02:52;19.50;99.90
20594;DHT22;10455;48.732;10.266;2023-08-08T18:07:57;19.20;99.90
20594;DHT22;10455;48.732;10.266;2023-08-08T18:12:59;19.20;99.90
20594;DHT22;10455;48.732;10.266;2023-08-08T18:18:01;18.90;99.90
20594;DHT22;10455;48.732;10.266;2023-08-08T18:23:05;18.50;99.90
20594;DHT22;10455;48.732;10.266;2023-08-08T18:28:08;18.10;99.90
20594;DHT22;10455;48.732;10.266;2023-08-08T18:33:10;17.70;99.90
20594;DHT22;10455;48.732;10.266;2023-08-08T18:38:14;17.50;99.90
20594;DHT22;10455;48.732;10.266;2023-08-08T18:43:16;17.20;99.90
20594;DHT22;10455;48.732;10.266;2023-08-08T18:48:19;16.80;99.90
20594;DHT22;10455;48.732;10.266;2023-08-08T18:53:22;16.50;99.90
20594;DHT22;10455;48.732;10.266;2023-08-08T18:58:24;16.40;99.90
20594;DHT22;10455;48.732;10.266;2023-08-08T19:03:26;16.30;99.90
20594;DHT22;10455;48.732;10.266;2023-08-08T19:08:29;16.00;99.90
20594;DHT22;10455;48.732;10.266;2023-08-08T19:13:31;15.70;99.90
20594;DHT22;10455;48.732;10.266;2023-08-08T19:18:33;15.60;99.90
20594;DHT22;10455;48.732;10.266;2023-08-08T19:23:36;15.60;99.90
20594;DHT22;10455;48.732;10.266;2023-08-08T19:28:38;15.30;99.90
20594;DHT22;10455;48.732;10.266;2023-08-08T19:33:40;14.90;99.90
20594;DHT22;10455;48.732;10.266;2023-08-08T19:38:43;14.80;99.90
20594;DHT22;10455;48.732;10.266;2023-08-08T19:43:47;14.80;99.90
20594;DHT22;10455;48.732;10.266;2023-08-08T19:48:48;14.80;99.90
20594;DHT22;10455;48.732;10.266;2023-08-08T19:53:52;14.90;99.90
20594;DHT22;10455;48.732;10.266;2023-08-08T19:58:53;15.00;99.90
20594;DHT22;10455;48.732;10.266;2023-08-08T20:03:55;15.00;99.90
20594;DHT22;10455;48.732;10.266;2023-08-08T20:08:59;15.10;99.90
20594;DHT22;10455;48.732;10.266;2023-08-08T20:14:01;15.00;99.90
20594;DHT22;10455;48.732;10.266;2023-08-08T20:19:02;15.10;99.90
20594;DHT22;10455;48.732;10.266;2023-08-08T20:24:06;15.20;99.90
20594;DHT22;10455;48.732;10.266;2023-08-08T20:29:13;15.10;99.90
20594;DHT22;10455;48.732;10.266;2023-08-08T20:34:15;15.30;99.90
20594;DHT22;10455;48.732;10.266;2023-08-08T20:39:18;15.30;99.90
20594;DHT22;10455;48.732;10.266;2023-08-08T20:44:20;15.20;99.90
20594;DHT22;10455;48.732;10.266;2023-08-08T20:49:22;15.30;99.90
20594;DHT22;10455;48.732;10.266;2023-08-08T20:54:25;15.20;99.90
20594;DHT22;10455;48.732;10.266;2023-08-08T20:59:27;15.10;99.90
20594;DHT22;10455;48.732;10.266;2023-08-08T21:04:31;15.10;99.90
20594;DHT22;10455;48.732;10.266;2023-08-08T21:09:34;15.10;99.90
20594;DHT22;10455;48.732;10.266;2023-08-08T21:14:37;15.00;99.90
20594;DHT22;10455;48.732;10.266;2023-08-08T21:19:38;15.10;99.90
20594;DHT22;10455;48.732;10.266;2023-08-08T21:24:42;15.00;99.90
20594;DHT22;10455;48.732;10.266;2023-08-08T21:29:44;15.00;99.90
20594;DHT22;10455;48.732;10.266;2023-08-08T21:34:46;15.10;99.90
20594;DHT22;10455;48.732;10.266;2023-08-08T21:39:49;15.20;99.90
20594;DHT22;10455;48.732;10.266;2023-08-08T21:44:51;15.10;99.90
20594;DHT22;10455;48.732;10.266;2023-08-08T21:49:53;15.20;99.90
20594;DHT22;10455;48.732;10.266;2023-08-08T21:54:56;15.30;99.90
20594;DHT22;10455;48.732;10.266;2023-08-08T21:59:58;15.10;99.90
20594;DHT22;10455;48.732;10.266;2023-08-08T22:05:00;15.10;99.90
20594;DHT22;10455;48.732;10.266;2023-08-08T22:10:04;15.00;99.90
20594;DHT22;10455;48.732;10.266;2023-08-08T22:15:07;14.90;99.90
20594;DHT22;10455;48.732;10.266;2023-08-08T22:20:10;14.80;99.90
20594;DHT22;10455;48.732;10.266;2023-08-08T22:25:13;14.70;99.90
20594;DHT22;10455;48.732;10.266;2023-08-08T22:30:17;14.70;99.90
20594;DHT22;10455;48.732;10.266;2023-08-08T22:35:20;14.60;99.90
20594;DHT22;10455;48.732;10.266;2023-08-08T22:40:23;14.60;99.90
20594;DHT22;10455;48.732;10.266;2023-08-08T22:45:25;14.60;99.90
20594;DHT22;10455;48.732;10.266;2023-08-08T22:50:28;14.60;99.90
20594;DHT22;10455;48.732;10.266;2023-08-08T22:55:31;14.80;99.90
20594;DHT22;10455;48.732;10.266;2023-08-08T23:00:33;14.80;99.90
20594;DHT22;10455;48.732;10.266;2023-08-08T23:05:35;14.70;99.90
20594;DHT22;10455;48.732;10.266;2023-08-08T23:10:39;14.80;99.90
20594;DHT22;10455;48.732;10.266;2023-08-08T23:20:51;14.70;99.90
20594;DHT22;10455;48.732;10.266;2023-08-08T23:25:54;14.80;99.90
20594;DHT22;10455;48.732;10.266;2023-08-08T23:30:56;14.80;99.90
20594;DHT22;10455;48.732;10.266;2023-08-08T23:35:58;14.80;99.90
20594;DHT22;10455;48.732;10.266;2023-08-08T23:41:01;14.80;99.90
20594;DHT22;10455;48.732;10.266;2023-08-08T23:51:09;14.90;99.90
20594;DHT22;10455;48.732;10.266;2023-08-08T23:56:12;14.80;99.90
